Morro Bay, CA

4:29 AM PDT on August 31, 2014 (GMT -0700)
Bonita and Hwy 1 | Change Station
CLOSE
Current Station
Personal Weather Station
Location: Morro Bay, CA
Elevation: 45 ft
Nearby Weather Stations

Elev 45 ft 35.39 °N, 120.86 °W | Updated 1 second ago

Clear
Clear
58.6 °F
Feels Like 58.6 °F
N
0.0
Wind Variable Wind from NW
Gusts 2.0 mph

Today
High -- | Low -- °F
--% Chance of Precip.
Yesterday
High -- | Low -- °F
Precip. -- in
6:35 AM 7:31 PM
Waxing Crescent, 30% visible
Pressure 29.84 in
Visibility 10.0 miles
Clouds Clear
Dew Point 55 °F
Humidity 88%
Rainfall 0.00 in
Snow Depth Not available.
UV 0 out of 12
Pollen 9.20 out of 12
Air Quality Not available.
Flu Activity Not available.
METAR KSBP 311056Z 00000KT 10SM CLR 14/12 A2984 RMK AO2 SLP103 T01440117 $

More Conditions Fewer Conditions

Pressure 29.84 in
Visibility 10.0 miles
Clouds Clear
Dew Point 55 °F
Humidity 88%
Rainfall 0.00 in
Snow Depth Not available.
UV 0 out of 12
Pollen 9.20 out of 12
Air Quality Not available.
Flu Activity Not available.
METAR KSBP 311056Z 00000KT 10SM CLR 14/12 A2984 RMK AO2 SLP103 T01440117 $

More Conditions Fewer Conditions

10-Day Weather Forecast

Almanac

Astronomy

Aug. 31, 2014 Rise Set
Actual Time 6:35 AM PDT 7:31 PM PDT
Civil Twilight 6:09 AM PDT 7:57 PM PDT
Nautical Twilight 5:38 AM PDT 8:28 PM PDT
Astronomical Twilight 5:06 AM PDT 9:00 PM PDT
Moon 12:13 PM PDT 11:04 PM PDT
Length of Visible Light 13h 48m
Length of Day
12h 56m
Tomorrow will be 2m 8s shorter.
Waxing Crescent, 30% of the Moon is Illuminated
Today
Waxing Crescent
Sep 2
First Quarter
Sep 8
Full
Sep 15
Last Quarter
Sep 24
New

Today's Extremes

State Highs State Lows

Community

WunderPhotos

Upload Photos

1,748,840 photos uploaded!

Nearby

Snow Depth

Station Depth Elevation
Leavitt Lake 0 in 9400 ft
Leavitt Meadows 1 in 7200 ft
Summit Meadow 1 in 9122 ft
Ebbetts Pass 0 in 8700 ft
Blue Lakes 0 in 8000 ft

Earthquake Activity

City Distance Mag. Time & Date
Gonzales, California 89 miles 2.7 9:48 PM PDT
2014-08-30
Malibu, California 151 miles 2.5 8:11 AM PDT
2014-08-30
Ridgemark, California 93 miles 3.4 4:32 PM PDT
2014-08-29
Ridgemark, California 93 miles 3.0 2:44 PM PDT
2014-08-29
Minimum magnitude displayed is 2.5.

Coastal Water Temperatures

Place Temperature
No Stations Reporting

Nearby Weather Stations